Time;durP1;ratioP1;P1;durP2;ratioP2;P2;SDS_P1;SDS_P2;PMS_P1;PMS_P2;Temp;Humidity;BMP_temperature;BMP_pressure;BME280_temperature;BME280_humidity;BME280_pressure;Samples;Min_cycle;Max_cycle;Signal;HPM_P1;HPM_P2
2023/03/19 00:01:24;;;;;;;;;;;;;;;5.13;100.00;100239.38;5092538;28;922;-68
2023/03/19 00:03:51;;;;;;;;;;;;;;;5.15;100.00;100256.28;5092498;28;808;-68
2023/03/19 00:06:18;;;;;;;;;;;;;;;5.26;100.00;100251.84;5092443;28;831;-69
2023/03/19 00:08:45;;;;;;;;;;;;;;;5.33;100.00;100256.69;5092751;28;924;-69
2023/03/19 00:11:12;;;;;;;;;;;;;;;5.35;100.00;100248.13;5092077;28;1278;-69
2023/03/19 00:13:39;;;;;;;;;;;;;;;5.33;100.00;100245.72;5092297;28;1922;-68
2023/03/19 00:16:06;;;;;;;;;;;;;;;5.34;100.00;100252.03;5092227;28;852;-67
2023/03/19 00:18:34;;;;;;;;;;;;;;;5.35;100.00;100243.41;5092133;28;1180;-69
2023/03/19 00:21:01;;;;;;;;;;;;;;;5.36;100.00;100263.44;5092116;28;835;-68
2023/03/19 00:23:27;;;;;;;;;;;;;;;5.38;100.00;100269.34;5092221;28;898;-68
2023/03/19 00:25:53;;;;;;;;;;;;;;;5.42;100.00;100268.28;5092016;28;855;-68
2023/03/19 00:28:20;;;;;;;;;;;;;;;5.43;100.00;100258.09;5092096;28;934;-70
2023/03/19 00:30:47;;;;;;;;;;;;;;;5.43;100.00;100260.84;5091961;28;855;-69
2023/03/19 00:33:14;;;;;;;;;;;;;;;5.48;100.00;100257.81;5092166;28;848;-69
2023/03/19 00:35:40;;;;;;;;;;;;;;;5.48;100.00;100249.59;5073729;28;1917;-68
2023/03/19 00:38:07;;;;;;;;;;;;;;;5.46;100.00;100244.47;5091807;28;792;-67
2023/03/19 00:40:34;;;;;;;;;;;;;;;5.47;100.00;100240.56;5091913;28;866;-67
2023/03/19 00:43:01;;;;;;;;;;;;;;;5.48;100.00;100223.00;5091770;28;926;-67
2023/03/19 00:45:29;;;;;;;;;;;;;;;5.52;100.00;100239.50;5091771;28;1001;-67
2023/03/19 00:47:56;;;;;;;;;;;;;;;5.59;100.00;100244.34;5091779;28;883;-69
2023/03/19 00:50:25;;;;;;;;;;;;;;;5.51;100.00;100251.63;5091680;28;996;-67
2023/03/19 00:52:51;;;;;;;;;;;;;;;5.58;100.00;100251.00;5091747;28;895;-68
2023/03/19 00:55:18;;;;;;;;;;;;;;;5.58;100.00;100245.50;5073353;28;1893;-67
2023/03/19 00:57:44;;;;;;;;;;;;;;;5.67;100.00;100254.31;5091706;28;918;-67
2023/03/19 01:00:12;;;;;;;;;;;;;;;5.70;100.00;100257.16;5091603;28;887;-67
2023/03/19 01:02:39;;;;;;;;;;;;;;;5.68;100.00;100250.44;5091595;28;857;-69
2023/03/19 01:05:06;;;;;;;;;;;;;;;5.70;100.00;100250.88;5091628;28;890;-67
2023/03/19 01:07:34;;;;;;;;;;;;;;;5.71;100.00;100253.25;5091802;28;878;-68
2023/03/19 01:10:01;;;;;;;;;;;;;;;5.73;100.00;100256.41;5091519;28;1222;-67
2023/03/19 01:12:27;;;;;;;;;;;;;;;5.72;100.00;100256.81;5091524;28;827;-67
2023/03/19 01:14:54;;;;;;;;;;;;;;;5.72;100.00;100252.09;5091324;28;1913;-67
2023/03/19 01:17:20;;;;;;;;;;;;;;;5.76;100.00;100262.34;5091474;28;840;-68
2023/03/19 01:19:48;;;;;;;;;;;;;;;5.78;100.00;100257.28;5091476;28;855;-70
2023/03/19 01:22:15;;;;;;;;;;;;;;;5.79;100.00;100248.72;5091397;28;894;-69
2023/03/19 01:24:42;;;;;;;;;;;;;;;5.70;100.00;100250.88;5091402;28;886;-67
2023/03/19 01:27:08;;;;;;;;;;;;;;;5.68;100.00;100258.66;5091350;28;815;-67
2023/03/19 01:29:35;;;;;;;;;;;;;;;5.63;100.00;100269.91;5091620;28;859;-66
2023/03/19 01:32:02;;;;;;;;;;;;;;;5.66;100.00;100255.50;5091333;28;819;-68
2023/03/19 01:34:28;;;;;;;;;;;;;;;5.58;100.00;100256.47;5091284;28;1893;-66
2023/03/19 01:36:55;;;;;;;;;;;;;;;5.60;100.00;100256.91;5073033;28;1386;-67
2023/03/19 01:39:22;;;;;;;;;;;;;;;5.57;100.00;100247.47;5091275;28;866;-69
2023/03/19 01:41:48;;;;;;;;;;;;;;;5.62;100.00;100257.34;5091168;28;894;-69
2023/03/19 01:44:31;;;;;;;;;;;;;;;5.62;100.00;100252.66;5091548;28;823;-66
2023/03/19 01:46:59;;;;;;;;;;;;;;;5.65;100.00;100264.84;5091425;28;839;-67
2023/03/19 01:49:26;;;;;;;;;;;;;;;5.66;100.00;100261.75;5092434;28;832;-68
2023/03/19 01:51:54;;;;;;;;;;;;;;;5.64;100.00;100272.28;5095080;28;874;-69
2023/03/19 01:54:22;;;;;;;;;;;;;;;5.67;100.00;100263.34;5094865;28;1893;-70
2023/03/19 01:56:59;;;;;;;;;;;;;;;5.66;100.00;100263.72;5095119;28;886;-69
2023/03/19 01:59:28;;;;;;;;;;;;;;;5.58;100.00;100265.50;5095167;28;820;-68
2023/03/19 02:02:15;;;;;;;;;;;;;;;5.66;100.00;100263.72;5094978;28;910;-69
2023/03/19 02:04:43;;;;;;;;;;;;;;;5.70;100.00;100264.59;5080509;28;1204;-67
2023/03/19 02:07:11;;;;;;;;;;;;;;;5.65;100.00;100256.63;5095456;28;878;-67
2023/03/19 02:09:39;;;;;;;;;;;;;;;5.63;100.00;100275.38;5094936;28;1341;-67
2023/03/19 02:12:06;;;;;;;;;;;;;;;5.67;100.00;100257.06;5094817;28;918;-67
2023/03/19 02:14:33;;;;;;;;;;;;;;;5.65;100.00;100257.41;5094793;28;1917;-67
2023/03/19 02:17:00;;;;;;;;;;;;;;;5.66;100.00;100260.97;5094743;28;910;-67
2023/03/19 02:19:39;;;;;;;;;;;;;;;5.68;100.00;100258.66;5094826;28;823;-67
2023/03/19 02:22:08;;;;;;;;;;;;;;;5.66;100.00;100258.22;5094367;28;879;-67
2023/03/19 02:24:38;;;;;;;;;;;;;;;5.68;100.00;100264.16;5094424;28;899;-68
2023/03/19 02:27:06;;;;;;;;;;;;;;;5.71;100.00;100266.97;5094395;28;840;-67
2023/03/19 02:29:33;;;;;;;;;;;;;;;5.73;100.00;100256.41;5094556;28;891;-68
2023/03/19 02:31:59;;;;;;;;;;;;;;;5.71;100.00;100256.00;5094585;28;820;-67
2023/03/19 02:34:26;;;;;;;;;;;;;;;5.75;100.00;100264.31;5094132;28;1894;-69
2023/03/19 02:36:59;;;;;;;;;;;;;;;5.78;100.00;100271.00;5094165;28;831;-67
2023/03/19 02:39:31;;;;;;;;;;;;;;;5.77;100.00;100275.72;5094162;28;883;-68
2023/03/19 02:41:59;;;;;;;;;;;;;;;5.80;100.00;100266.75;5094155;28;844;-67
2023/03/19 02:44:26;;;;;;;;;;;;;;;5.79;100.00;100278.09;5094313;28;915;-69
2023/03/19 02:46:53;;;;;;;;;;;;;;;5.82;100.00;100282.84;5094062;28;871;-70
2023/03/19 02:49:20;;;;;;;;;;;;;;;5.80;100.00;100280.47;5093898;28;864;-70
2023/03/19 02:51:46;;;;;;;;;;;;;;;5.82;100.00;100280.13;5093830;28;907;-67
2023/03/19 02:54:12;;;;;;;;;;;;;;;5.74;100.00;100276.44;5093732;28;1983;-67
2023/03/19 02:56:39;;;;;;;;;;;;;;;5.75;100.00;100269.00;5094065;28;870;-65
2023/03/19 02:59:06;;;;;;;;;;;;;;;5.78;100.00;100276.50;5094031;28;935;-68
2023/03/19 03:01:32;;;;;;;;;;;;;;;5.78;100.00;100273.75;5075356;28;812;-69
2023/03/19 03:03:59;;;;;;;;;;;;;;;5.67;100.00;100285.28;5093828;28;858;-69
2023/03/19 03:06:25;;;;;;;;;;;;;;;5.72;100.00;100286.97;5093789;28;791;-69
2023/03/19 03:08:52;;;;;;;;;;;;;;;5.70;100.00;100300.25;5093862;28;1005;-70
2023/03/19 03:11:18;;;;;;;;;;;;;;;5.69;100.00;100295.91;5093390;28;1273;-68
2023/03/19 03:13:45;;;;;;;;;;;;;;;5.69;100.00;100299.44;5075279;28;1976;-67
2023/03/19 03:16:12;;;;;;;;;;;;;;;5.70;100.00;100292.03;5093510;28;862;-68
2023/03/19 03:18:38;;;;;;;;;;;;;;;5.66;100.00;100282.91;5093423;28;879;-67
2023/03/19 03:21:05;;;;;;;;;;;;;;;5.60;100.00;100293.34;5093253;28;869;-67
2023/03/19 03:23:32;;;;;;;;;;;;;;;5.58;100.00;100283.91;5093295;28;882;-68
2023/03/19 03:25:58;;;;;;;;;;;;;;;5.55;100.00;100282.66;5093282;28;835;-67
2023/03/19 03:28:25;;;;;;;;;;;;;;;5.55;100.00;100290.09;5093202;28;835;-69
2023/03/19 03:30:57;;;;;;;;;;;;;;;5.59;100.00;100304.66;5074964;28;1246;-69
2023/03/19 03:33:24;;;;;;;;;;;;;;;5.58;100.00;100295.66;5093115;28;855;-70
2023/03/19 03:35:51;;;;;;;;;;;;;;;5.68;100.00;100306.09;5074690;28;1973;-69
2023/03/19 03:38:17;;;;;;;;;;;;;;;5.72;100.00;100303.44;5093368;28;895;-70
2023/03/19 03:40:44;;;;;;;;;;;;;;;5.64;100.00;100294.22;5092943;28;839;-66
2023/03/19 03:43:10;;;;;;;;;;;;;;;5.64;100.00;100298.94;5092902;28;846;-67
2023/03/19 03:45:37;;;;;;;;;;;;;;;5.67;100.00;100293.50;5092885;28;874;-68
2023/03/19 03:48:03;;;;;;;;;;;;;;;5.63;100.00;100300.06;5092865;28;820;-69
2023/03/19 03:50:30;;;;;;;;;;;;;;;5.65;100.00;100314.22;5092970;28;953;-67
2023/03/19 03:52:57;;;;;;;;;;;;;;;5.67;100.00;100307.22;5092757;28;910;-67
2023/03/19 03:55:23;;;;;;;;;;;;;;;5.72;100.00;100308.91;5092778;28;1948;-68
2023/03/19 03:57:50;;;;;;;;;;;;;;;5.75;100.00;100319.16;5092572;28;871;-68
2023/03/19 04:00:18;;;;;;;;;;;;;;;5.67;100.00;100317.41;5092609;28;823;-70
2023/03/19 04:02:44;;;;;;;;;;;;;;;5.75;100.00;100315.63;5092783;28;838;-69
2023/03/19 04:05:11;;;;;;;;;;;;;;;5.66;100.00;100319.34;5092567;28;981;-67
2023/03/19 04:07:38;;;;;;;;;;;;;;;5.71;100.00;100318.28;5092460;28;852;-67
2023/03/19 04:10:05;;;;;;;;;;;;;;;5.67;100.00;100315.44;5092464;28;1371;-68
2023/03/19 04:12:32;;;;;;;;;;;;;;;5.61;100.00;100321.56;5091761;28;910;-67
2023/03/19 04:14:58;;;;;;;;;;;;;;;5.58;100.00;100305.84;5092492;28;1909;-67
2023/03/19 04:17:25;;;;;;;;;;;;;;;5.59;100.00;100319.19;5092315;28;863;-70
2023/03/19 04:19:52;;;;;;;;;;;;;;;5.58;100.00;100309.38;5092356;28;839;-68
2023/03/19 04:22:18;;;;;;;;;;;;;;;5.60;100.00;100320.78;5092135;28;914;-67
2023/03/19 04:24:45;;;;;;;;;;;;;;;5.65;100.00;100319.69;5092238;28;824;-67
2023/03/19 04:27:12;;;;;;;;;;;;;;;5.61;100.00;100319.63;5092287;28;902;-66
2023/03/19 04:29:37;;;;;;;;;;;;;;;5.66;100.00;100330.31;5092331;28;836;-68
2023/03/19 04:32:03;;;;;;;;;;;;;;;5.74;100.00;100325.81;5092374;28;1047;-68
2023/03/19 04:34:30;;;;;;;;;;;;;;;5.73;100.00;100333.22;5092246;28;1953;-69
2023/03/19 04:36:57;;;;;;;;;;;;;;;5.75;100.00;100327.38;5091953;28;851;-69
2023/03/19 04:39:24;;;;;;;;;;;;;;;5.80;100.00;100334.53;5092110;28;871;-70
2023/03/19 04:41:51;;;;;;;;;;;;;;;5.80;100.00;100345.50;5091937;28;839;-68
2023/03/19 04:44:17;;;;;;;;;;;;;;;5.72;100.00;100344.56;5073667;28;1332;-68
2023/03/19 04:46:45;;;;;;;;;;;;;;;5.81;100.00;100352.59;5091857;28;828;-68
2023/03/19 04:49:11;;;;;;;;;;;;;;;5.83;100.00;100347.56;5091805;28;971;-67
2023/03/19 04:51:38;;;;;;;;;;;;;;;5.79;100.00;100344.72;5091709;28;863;-67
2023/03/19 04:54:04;;;;;;;;;;;;;;;5.77;100.00;100346.25;5091639;28;1881;-69
2023/03/19 04:56:31;;;;;;;;;;;;;;;5.79;100.00;100341.97;5073633;28;1275;-69
2023/03/19 04:58:58;;;;;;;;;;;;;;;5.71;100.00;100356.69;5091667;28;819;-69
2023/03/19 05:01:24;;;;;;;;;;;;;;;5.76;100.00;100359.16;5091644;28;1036;-68
2023/03/19 05:03:51;;;;;;;;;;;;;;;5.82;100.00;100354.97;5091643;28;977;-68
2023/03/19 05:06:18;;;;;;;;;;;;;;;5.90;100.00;100366.91;5091657;28;823;-69
2023/03/19 05:08:45;;;;;;;;;;;;;;;6.00;100.00;100371.88;5091857;28;964;-68
2023/03/19 05:11:13;;;;;;;;;;;;;;;6.14;100.00;100360.41;5091390;28;1253;-69
2023/03/19 05:13:39;;;;;;;;;;;;;;;6.25;100.00;100366.97;5091502;28;1975;-69
2023/03/19 05:16:06;;;;;;;;;;;;;;;6.32;100.00;100363.56;5091402;28;860;-69
2023/03/19 05:18:33;;;;;;;;;;;;;;;6.42;100.00;100368.50;5091510;28;573;-69
2023/03/19 05:20:59;;;;;;;;;;;;;;;6.46;100.00;100372.09;5091354;28;843;-69
2023/03/19 05:23:26;;;;;;;;;;;;;;;6.48;100.00;100364.28;5092665;28;812;-69
2023/03/19 05:25:51;;;;;;;;;;;;;;;6.62;100.00;100377.53;5095587;28;926;-68
2023/03/19 05:28:18;;;;;;;;;;;;;;;6.71;100.00;100375.34;5095525;28;914;-68
2023/03/19 05:30:44;;;;;;;;;;;;;;;6.73;100.00;100364.78;5095441;28;851;-68
2023/03/19 05:33:11;;;;;;;;;;;;;;;6.68;100.00;100378.81;5095423;28;808;-69
2023/03/19 05:35:38;;;;;;;;;;;;;;;6.67;100.00;100377.22;5095371;28;1893;-69
2023/03/19 05:38:05;;;;;;;;;;;;;;;6.78;100.00;100380.19;5095328;28;874;-68
2023/03/19 05:40:33;;;;;;;;;;;;;;;6.89;100.00;100385.88;5095448;28;827;-68
2023/03/19 05:43:00;;;;;;;;;;;;;;;6.81;100.00;100382.22;5095198;28;862;-67
2023/03/19 05:45:26;;;;;;;;;;;;;;;6.70;100.00;100383.94;5095255;28;872;-68
2023/03/19 05:47:52;;;;;;;;;;;;;;;6.75;100.00;100386.41;5095192;28;859;-69
2023/03/19 05:50:19;;;;;;;;;;;;;;;6.80;100.00;100379.81;5076781;28;1190;-68
2023/03/19 05:52:46;;;;;;;;;;;;;;;6.75;100.00;100384.47;5095056;28;867;-68
2023/03/19 05:55:13;;;;;;;;;;;;;;;6.66;100.00;100391.34;5094956;28;1890;-69
2023/03/19 05:57:40;;;;;;;;;;;;;;;6.69;100.00;100385.09;5094986;28;843;-69
2023/03/19 06:00:07;;;;;;;;;;;;;;;6.78;100.00;100384.88;5095185;28;839;-68
2023/03/19 06:02:34;;;;;;;;;;;;;;;6.97;100.00;100381.34;5094868;28;863;-68
2023/03/19 06:05:01;;;;;;;;;;;;;;;6.94;100.00;100380.09;5094833;28;910;-68
2023/03/19 06:07:27;;;;;;;;;;;;;;;6.98;100.00;100369.97;5076594;28;1181;-68
2023/03/19 06:09:54;;;;;;;;;;;;;;;7.00;100.00;100375.09;5094705;28;1195;-68
2023/03/19 06:12:21;;;;;;;;;;;;;;;6.82;100.00;100372.03;5094662;28;906;-68
2023/03/19 06:18:04;;;;;;;;;;;;;;;6.64;100.00;100383.44;5094612;28;602;-69
2023/03/19 06:20:31;;;;;;;;;;;;;;;6.49;100.00;100374.13;5094547;28;899;-68
2023/03/19 06:22:58;;;;;;;;;;;;;;;6.47;100.00;100381.94;5094459;28;1196;-69
2023/03/19 06:25:25;;;;;;;;;;;;;;;6.60;100.00;100381.78;5076220;28;1220;-68
2023/03/19 06:27:51;;;;;;;;;;;;;;;6.51;100.00;100390.25;5076143;28;1229;-68
2023/03/19 06:30:18;;;;;;;;;;;;;;;6.81;100.00;100381.44;5094345;28;828;-68
2023/03/19 06:32:44;;;;;;;;;;;;;;;7.06;100.00;100381.88;5094694;28;879;-68
2023/03/19 06:35:11;;;;;;;;;;;;;;;7.27;100.00;100379.53;5093521;28;1917;-68
2023/03/19 06:37:38;;;;;;;;;;;;;;;7.48;100.00;100378.31;5094206;28;871;-69
2023/03/19 06:40:04;;;;;;;;;;;;;;;7.66;100.00;100378.59;5094214;28;919;-68
2023/03/19 06:42:31;;;;;;;;;;;;;;;8.03;100.00;100383.50;5094107;28;827;-67
2023/03/19 06:44:58;;;;;;;;;;;;;;;8.06;100.00;100383.53;5094079;28;855;-66
2023/03/19 06:47:24;;;;;;;;;;;;;;;8.02;100.00;100384.66;5075883;28;1308;-67
2023/03/19 06:49:51;;;;;;;;;;;;;;;7.94;100.00;100389.28;5093842;28;844;-67
2023/03/19 06:52:17;;;;;;;;;;;;;;;7.89;100.00;100406.88;5093929;28;836;-67
2023/03/19 06:54:44;;;;;;;;;;;;;;;7.76;100.00;100409.03;5094073;28;1944;-68
2023/03/19 06:57:10;;;;;;;;;;;;;;;7.82;100.00;100400.47;5093868;28;862;-69
2023/03/19 06:59:37;;;;;;;;;;;;;;;7.87;100.00;100395.47;5093781;28;807;-67
2023/03/19 07:02:04;;;;;;;;;;;;;;;7.74;100.00;100394.84;5093807;28;859;-68
2023/03/19 07:04:30;;;;;;;;;;;;;;;7.87;100.00;100392.72;5093675;28;855;-68
2023/03/19 07:06:57;;;;;;;;;;;;;;;7.96;100.00;100384.97;5075521;28;1147;-67
2023/03/19 07:09:24;;;;;;;;;;;;;;;7.65;100.00;100401.78;5093632;28;1251;-69
2023/03/19 07:11:50;;;;;;;;;;;;;;;7.78;100.00;100395.69;5093557;28;880;-68
2023/03/19 07:14:16;;;;;;;;;;;;;;;7.64;100.00;100405.69;5093490;28;1914;-68
2023/03/19 07:16:43;;;;;;;;;;;;;;;7.73;100.00;100401.53;5093571;28;938;-68
2023/03/19 07:19:10;;;;;;;;;;;;;;;7.77;100.00;100423.59;5093531;28;874;-68
2023/03/19 07:21:37;;;;;;;;;;;;;;;7.86;100.00;100417.84;5093586;28;915;-67
2023/03/19 07:24:04;;;;;;;;;;;;;;;7.89;100.00;100412.38;5093302;28;867;-68
2023/03/19 07:26:30;;;;;;;;;;;;;;;7.73;100.00;100423.53;5093315;28;906;-69
2023/03/19 07:28:57;;;;;;;;;;;;;;;7.89;100.00;100434.41;5093231;28;899;-68
2023/03/19 07:31:23;;;;;;;;;;;;;;;7.69;100.00;100421.91;5093122;28;851;-68
2023/03/19 07:33:50;;;;;;;;;;;;;;;7.70;100.00;100424.28;5093335;28;1885;-68
2023/03/19 07:36:16;;;;;;;;;;;;;;;7.87;100.00;100420.25;5093161;28;839;-68
2023/03/19 07:38:43;;;;;;;;;;;;;;;8.30;100.00;100433.84;5093028;28;823;-68
2023/03/19 07:41:09;;;;;;;;;;;;;;;8.41;100.00;100426.56;5093037;28;906;-68
2023/03/19 07:43:36;;;;;;;;;;;;;;;8.42;100.00;100421.84;5074949;28;879;-68
2023/03/19 07:46:03;;;;;;;;;;;;;;;8.17;100.00;100425.81;5092636;28;930;-69
2023/03/19 07:48:29;;;;;;;;;;;;;;;8.24;100.00;100416.84;5092121;28;883;-69
2023/03/19 07:50:56;;;;;;;;;;;;;;;8.40;100.00;100419.41;5092858;28;820;-68
2023/03/19 07:53:23;;;;;;;;;;;;;;;8.82;100.00;100415.66;5092721;28;816;-69
2023/03/19 07:55:49;;;;;;;;;;;;;;;9.53;100.00;100409.31;5092673;28;1945;-68
2023/03/19 07:58:15;;;;;;;;;;;;;;;10.09;100.00;100423.94;5092917;28;812;-67
2023/03/19 08:00:43;;;;;;;;;;;;;;;10.10;100.00;100423.56;5092669;28;836;-68
2023/03/19 08:03:10;;;;;;;;;;;;;;;9.92;100.00;100420.69;5092650;28;820;-68
2023/03/19 08:05:37;;;;;;;;;;;;;;;9.66;100.00;100423.63;5092513;28;820;-67
2023/03/19 08:08:04;;;;;;;;;;;;;;;9.25;100.00;100421.66;5092550;28;1387;-67
2023/03/19 08:10:31;;;;;;;;;;;;;;;8.87;100.00;100426.34;5092223;28;1437;-69
2023/03/19 08:12:57;;;;;;;;;;;;;;;8.69;100.00;100420.63;5092446;28;819;-68
2023/03/19 08:15:24;;;;;;;;;;;;;;;8.53;100.00;100431.03;5092763;28;1906;-68
2023/03/19 08:17:57;;;;;;;;;;;;;;;8.26;100.00;100428.28;5092430;28;823;-67
2023/03/19 08:20:24;;;;;;;;;;;;;;;8.17;100.00;100434.06;5092295;28;856;-69
2023/03/19 08:22:51;;;;;;;;;;;;;;;8.02;100.00;100435.00;5092272;28;796;-68
2023/03/19 08:25:18;;;;;;;;;;;;;;;8.12;100.00;100433.59;5092148;28;875;-68
2023/03/19 08:27:44;;;;;;;;;;;;;;;8.56;100.00;100433.84;5092132;28;816;-68
2023/03/19 08:30:11;;;;;;;;;;;;;;;9.00;100.00;100432.41;5092104;28;878;-68
2023/03/19 08:32:37;;;;;;;;;;;;;;;8.91;100.00;100426.41;5092115;28;815;-67
2023/03/19 08:35:04;;;;;;;;;;;;;;;8.70;100.00;100429.69;5091990;28;1885;-68
2023/03/19 08:37:31;;;;;;;;;;;;;;;8.61;100.00;100432.72;5073909;28;1278;-68
2023/03/19 08:39:58;;;;;;;;;;;;;;;8.74;100.00;100425.00;5091910;28;879;-67
2023/03/19 08:42:24;;;;;;;;;;;;;;;8.94;100.00;100414.59;5092003;28;883;-67
2023/03/19 08:44:51;;;;;;;;;;;;;;;8.94;100.00;100420.94;5091937;28;847;-67
2023/03/19 08:47:18;;;;;;;;;;;;;;;9.06;100.00;100419.09;5091783;28;886;-68
2023/03/19 08:49:44;;;;;;;;;;;;;;;9.28;100.00;100418.16;5073620;28;1364;-68
2023/03/19 08:52:11;;;;;;;;;;;;;;;9.55;100.00;100418.00;5092030;28;831;-67
2023/03/19 08:54:37;;;;;;;;;;;;;;;9.87;100.00;100415.50;5092004;28;1882;-68
2023/03/19 08:57:05;;;;;;;;;;;;;;;9.55;100.00;100413.28;5091799;28;886;-69
2023/03/19 08:59:32;;;;;;;;;;;;;;;9.33;100.00;100422.53;5091450;28;985;-69
2023/03/19 09:01:59;;;;;;;;;;;;;;;9.59;100.00;100416.06;5091577;28;855;-68
2023/03/19 09:04:25;;;;;;;;;;;;;;;9.56;100.00;100409.34;5091647;28;902;-69
2023/03/19 09:06:53;;;;;;;;;;;;;;;10.02;100.00;100417.19;5091561;28;879;-68
2023/03/19 09:09:20;;;;;;;;;;;;;;;10.41;100.00;100405.66;5073416;28;1327;-68
2023/03/19 09:11:47;;;;;;;;;;;;;;;10.62;100.00;100402.19;5051349;28;883;-68
2023/03/19 09:14:15;;;;;;;;;;;;;;;10.17;100.00;100403.47;5051285;28;1975;-68
2023/03/19 09:16:42;;;;;;;;;;;;;;;9.99;100.00;100401.41;5051235;28;899;-69
2023/03/19 09:19:08;;;;;;;;;;;;;;;10.14;100.00;100395.97;5051315;28;824;-67
2023/03/19 09:21:35;;;;;;;;;;;;;;;10.99;100.00;100389.28;5051282;28;871;-68
2023/03/19 09:24:03;;;;;;;;;;;;;;;11.42;100.00;100389.38;5051231;28;780;-68
2023/03/19 09:26:30;;;;;;;;;;;;;;;11.58;96.85;100366.81;5051204;28;865;-69
2023/03/19 09:28:57;;;;;;;;;;;;;;;10.90;98.53;100383.31;5051335;28;890;-68
2023/03/19 09:31:24;;;;;;;;;;;;;;;10.69;100.00;100398.66;5050014;28;1409;-68
2023/03/19 09:33:50;;;;;;;;;;;;;;;10.92;100.00;100392.81;5049806;28;1929;-68
2023/03/19 09:36:17;;;;;;;;;;;;;;;11.12;99.01;100384.97;5049811;28;1360;-69
2023/03/19 09:38:43;;;;;;;;;;;;;;;10.70;99.17;100393.94;5051090;28;867;-69
2023/03/19 10:09:43;;;;;;;;;;;;;;;11.22;94.35;100356.53;5493369;22;1654;-68
2023/03/19 10:12:28;;;;;;;;;;;;;;;10.67;96.94;100365.09;5094783;28;803;-69
2023/03/19 10:15:13;;;;;;;;;;;;;;;10.39;99.15;100361.03;5094651;28;1971;-68
2023/03/19 10:17:53;;;;;;;;;;;;;;;10.32;99.74;100352.69;5094769;28;834;-68
2023/03/19 10:20:22;;;;;;;;;;;;;;;10.96;98.25;100343.03;5094601;28;902;-69
2023/03/19 10:22:51;;;;;;;;;;;;;;;11.80;95.23;100328.84;5094654;28;843;-69
2023/03/19 10:25:20;;;;;;;;;;;;;;;12.02;91.41;100344.25;5094441;28;816;-69
2023/03/19 10:27:53;;;;;;;;;;;;;;;11.40;92.86;100331.63;5094484;28;819;-68
2023/03/19 10:30:19;;;;;;;;;;;;;;;11.32;94.90;100340.31;5094487;28;894;-67
2023/03/19 10:32:49;;;;;;;;;;;;;;;11.41;94.14;100324.13;5094358;28;872;-68
2023/03/19 10:35:19;;;;;;;;;;;;;;;11.10;95.05;100334.00;5094321;28;1909;-67
2023/03/19 10:37:47;;;;;;;;;;;;;;;11.48;94.77;100331.63;5094501;28;916;-67
2023/03/19 10:40:25;;;;;;;;;;;;;;;12.09;93.04;100331.56;5076207;28;1318;-69
2023/03/19 10:43:05;;;;;;;;;;;;;;;12.12;89.92;100328.00;5075967;28;939;-68
2023/03/19 10:45:33;;;;;;;;;;;;;;;11.67;91.60;100322.13;5094261;28;878;-68
2023/03/19 10:48:01;;;;;;;;;;;;;;;11.63;93.46;100328.47;5094066;28;862;-70
2023/03/19 10:50:36;;;;;;;;;;;;;;;12.14;90.50;100318.13;5094140;28;883;-69
2023/03/19 10:53:20;;;;;;;;;;;;;;;12.72;88.94;100309.56;5094338;28;804;-68
2023/03/19 10:55:52;;;;;;;;;;;;;;;12.97;85.83;100317.69;5093856;28;1881;-69
2023/03/19 10:58:19;;;;;;;;;;;;;;;13.32;85.17;100307.59;5093902;28;827;-68
2023/03/19 11:00:47;;;;;;;;;;;;;;;13.26;83.27;100307.19;5093906;28;819;-70
2023/03/19 11:03:31;;;;;;;;;;;;;;;13.07;82.31;100294.66;5093797;28;860;-68
2023/03/19 11:06:06;;;;;;;;;;;;;;;12.86;83.00;100290.03;5093741;28;871;-68
2023/03/19 11:08:36;;;;;;;;;;;;;;;12.90;86.12;100290.81;5093826;28;929;-70
2023/03/19 11:11:03;;;;;;;;;;;;;;;12.98;83.01;100288.78;5093605;28;1460;-67
2023/03/19 11:13:33;;;;;;;;;;;;;;;13.13;84.50;100279.16;5075610;28;1330;-68
2023/03/19 11:16:00;;;;;;;;;;;;;;;12.82;84.76;100286.47;5093550;28;1977;-67
2023/03/19 11:18:30;;;;;;;;;;;;;;;13.31;84.70;100281.00;5093394;28;843;-67
2023/03/19 11:21:00;;;;;;;;;;;;;;;14.17;78.97;100280.16;5093544;28;835;-68
2023/03/19 11:23:28;;;;;;;;;;;;;;;14.65;78.73;100279.94;5093400;28;823;-69
2023/03/19 11:25:58;;;;;;;;;;;;;;;15.05;74.73;100259.88;5093286;28;831;-69
2023/03/19 11:28:25;;;;;;;;;;;;;;;14.57;71.19;100261.75;5093327;28;831;-68
2023/03/19 11:31:04;;;;;;;;;;;;;;;14.53;68.68;100263.00;5093231;28;941;-68
2023/03/19 11:33:49;;;;;;;;;;;;;;;14.73;69.05;100258.38;5093126;28;819;-68
2023/03/19 11:36:18;;;;;;;;;;;;;;;14.96;68.68;100252.06;5093187;28;835;-68
2023/03/19 11:38:54;;;;;;;;;;;;;;;14.95;68.52;100250.47;5093007;28;882;-69
2023/03/19 11:41:29;;;;;;;;;;;;;;;15.16;68.10;100248.56;5093008;28;804;-69
2023/03/19 11:44:04;;;;;;;;;;;;;;;15.12;67.24;100243.06;5093628;28;804;-68
2023/03/19 11:46:40;;;;;;;;;;;;;;;15.43;65.74;100234.59;5092944;28;854;-67
2023/03/19 11:49:14;;;;;;;;;;;;;;;15.91;66.63;100230.50;5092871;28;811;-68
2023/03/19 11:51:40;;;;;;;;;;;;;;;15.87;63.03;100224.22;5092897;28;827;-68
2023/03/19 11:54:22;;;;;;;;;;;;;;;15.63;64.01;100226.25;5092662;28;1984;-67
2023/03/19 11:56:59;;;;;;;;;;;;;;;15.26;64.62;100233.69;5092735;28;867;-68
2023/03/19 11:59:29;;;;;;;;;;;;;;;15.23;64.83;100223.38;5092650;28;902;-68
2023/03/19 12:02:14;;;;;;;;;;;;;;;15.48;64.63;100226.50;5092729;28;848;-68
2023/03/19 12:04:41;;;;;;;;;;;;;;;15.47;64.88;100216.59;5092613;28;945;-68
2023/03/19 12:07:16;;;;;;;;;;;;;;;15.66;64.25;100219.81;5074379;28;1586;-69
2023/03/19 12:09:43;;;;;;;;;;;;;;;16.02;65.11;100222.69;5070802;28;1218;-69
2023/03/19 12:12:23;;;;;;;;;;;;;;;16.30;62.75;100210.19;5072398;28;838;-68
2023/03/19 12:14:59;;;;;;;;;;;;;;;16.51;60.49;100211.72;5072394;28;1902;-68
2023/03/19 12:17:25;;;;;;;;;;;;;;;16.58;60.27;100215.53;5072097;28;803;-68
2023/03/19 12:20:02;;;;;;;;;;;;;;;16.68;59.86;100211.72;5072117;28;839;-67
2023/03/19 12:22:37;;;;;;;;;;;;;;;16.36;59.41;100198.50;5072108;28;854;-68
2023/03/19 12:25:15;;;;;;;;;;;;;;;16.06;61.64;100195.53;5071931;28;855;-68
2023/03/19 12:27:50;;;;;;;;;;;;;;;16.63;58.96;100198.28;5072242;28;804;-69
2023/03/19 12:30:35;;;;;;;;;;;;;;;16.68;58.43;100204.13;5072069;28;899;-69
2023/03/19 12:33:07;;;;;;;;;;;;;;;16.49;58.14;100191.81;5070043;28;1344;-68
2023/03/19 12:35:34;;;;;;;;;;;;;;;16.68;58.56;100187.38;5071786;28;1933;-68
2023/03/19 12:38:04;;;;;;;;;;;;;;;16.60;58.26;100199.13;5071679;28;874;-68
2023/03/19 12:40:47;;;;;;;;;;;;;;;16.73;56.67;100191.69;5071764;28;898;-68
2023/03/19 12:43:32;;;;;;;;;;;;;;;17.59;55.77;100192.28;5071717;28;847;-68
2023/03/19 12:46:18;;;;;;;;;;;;;;;17.44;54.82;100191.09;5071823;28;831;-68
2023/03/19 12:48:50;;;;;;;;;;;;;;;17.62;55.63;100180.22;5071060;28;1213;-69
2023/03/19 12:51:19;;;;;;;;;;;;;;;17.42;54.54;100185.19;5071592;28;816;-68
2023/03/19 12:53:45;;;;;;;;;;;;;;;17.41;55.09;100178.00;5071507;28;879;-69
2023/03/19 12:56:16;;;;;;;;;;;;;;;18.24;53.51;100180.03;5071534;28;1898;-68
2023/03/19 12:58:53;;;;;;;;;;;;;;;18.12;51.38;100173.22;5071550;28;868;-68
2023/03/19 13:01:23;;;;;;;;;;;;;;;17.75;51.94;100183.84;5071539;28;831;-68
2023/03/19 13:03:54;;;;;;;;;;;;;;;17.87;50.86;100179.53;5071536;28;799;-68
2023/03/19 13:06:24;;;;;;;;;;;;;;;17.68;50.70;100178.44;5071372;28;1004;-69
2023/03/19 13:09:09;;;;;;;;;;;;;;;18.01;50.41;100175.56;5072372;28;1321;-69
2023/03/19 13:11:52;;;;;;;;;;;;;;;17.84;50.43;100172.06;5091567;28;847;-68
2023/03/19 13:14:18;;;;;;;;;;;;;;;18.10;50.15;100163.72;5073391;28;1914;-69
2023/03/19 13:16:48;;;;;;;;;;;;;;;18.55;50.00;100171.09;5091585;28;859;-69
2023/03/19 13:19:29;;;;;;;;;;;;;;;18.57;50.03;100174.25;5091461;28;847;-69
2023/03/19 13:22:00;;;;;;;;;;;;;;;18.83;48.57;100166.63;5091725;28;804;-69
2023/03/19 13:24:27;;;;;;;;;;;;;;;18.69;48.69;100169.84;5091383;28;875;-68
2023/03/19 13:26:55;;;;;;;;;;;;;;;18.22;49.55;100171.34;5091461;28;848;-69
2023/03/19 13:29:23;;;;;;;;;;;;;;;17.98;49.62;100170.06;5091477;28;831;-68
2023/03/19 13:31:50;;;;;;;;;;;;;;;18.01;49.76;100177.53;5091416;28;803;-69